Time;durP1;ratioP1;P1;durP2;ratioP2;P2;SDS_P1;SDS_P2;PMS_P1;PMS_P2;Temp;Humidity;BMP_temperature;BMP_pressure;BME280_temperature;BME280_humidity;BME280_pressure;Samples;Min_cycle;Max_cycle;Signal;HPM_P1;HPM_P2
2021/12/18 00:01:38;;;;;;;18.48;12.23;;;;;;;7.71;94.88;103818.75;6215369;23;20034;-91
2021/12/18 00:04:07;;;;;;;19.55;12.27;;;;;;;7.84;95.31;103845.66;6165659;23;20036;-91
2021/12/18 00:06:33;;;;;;;20.17;12.95;;;;;;;7.96;95.30;103858.19;6190967;23;20039;-91
2021/12/18 00:09:02;;;;;;;19.55;12.85;;;;;;;7.65;94.92;103803.06;6141373;23;20507;-91
2021/12/18 00:11:28;;;;;;;19.70;12.18;;;;;;;7.75;95.02;103817.53;6190038;23;20070;-91
2021/12/18 00:13:54;;;;;;;19.02;12.30;;;;;;;7.79;95.17;103821.69;6165413;23;20009;-91
2021/12/18 00:16:20;;;;;;;19.58;12.60;;;;;;;7.60;95.15;103784.47;6165182;23;20035;-90
2021/12/18 00:18:50;;;;;;;19.20;12.25;;;;;;;7.60;95.38;103794.44;6190483;23;20484;-90
2021/12/18 00:21:18;;;;;;;18.83;12.40;;;;;;;7.77;95.74;103830.94;6189426;23;20016;-91
2021/12/18 00:23:45;;;;;;;18.70;11.73;;;;;;;7.61;95.70;103799.72;6189868;23;20001;-90
2021/12/18 00:26:11;;;;;;;18.80;12.07;;;;;;;7.74;95.80;103807.72;6190239;23;20067;-91
2021/12/18 00:28:37;;;;;;;19.73;12.25;;;;;;;7.53;95.83;103783.28;6189636;23;20446;-91
2021/12/18 00:31:03;;;;;;;19.40;12.10;;;;;;;7.66;96.05;103802.03;6164583;23;20087;-90
2021/12/18 00:33:28;;;;;;;18.65;11.50;;;;;;;7.75;96.38;103819.38;6165068;23;20092;-91
2021/12/18 00:35:54;;;;;;;16.45;10.32;;;;;;;7.93;96.53;103841.34;6165123;23;20024;-91
2021/12/18 00:38:28;;;;;;;15.63;9.85;;;;;;;7.93;96.43;103847.63;6164791;23;20004;-91
2021/12/18 00:44:01;;;;;;;16.10;10.05;;;;;;;7.71;96.17;103816.91;6150610;23;20012;-91
2021/12/18 00:46:35;;;;;;;15.85;10.00;;;;;;;7.91;96.50;103846.88;6147393;23;20433;-92
2021/12/18 00:49:03;;;;;;;14.10;8.88;;;;;;;7.60;96.12;103791.72;6166307;23;20073;-91
2021/12/18 00:51:29;;;;;;;15.73;9.73;;;;;;;7.62;95.91;103793.34;6165528;23;20036;-91
2021/12/18 00:53:55;;;;;;;15.05;9.02;;;;;;;7.52;96.00;103774.28;6189755;23;20423;-90
2021/12/18 00:56:26;;;;;;;15.98;9.43;;;;;;;7.57;95.92;103775.78;6190139;23;20139;-89
2021/12/18 00:58:52;;;;;;;14.98;9.38;;;;;;;7.68;95.91;103797.41;6189689;23;20317;-91
2021/12/18 01:01:22;;;;;;;14.13;8.90;;;;;;;7.72;95.45;103812.34;6165730;23;20340;-91
2021/12/18 01:03:56;;;;;;;14.82;9.13;;;;;;;7.49;95.44;103766.44;6189811;23;20012;-91
2021/12/18 01:06:24;;;;;;;15.38;9.18;;;;;;;7.49;95.36;103765.59;6189699;23;20087;-91
2021/12/18 01:08:54;;;;;;;14.45;8.55;;;;;;;7.71;95.25;103807.97;6189869;23;20335;-91
2021/12/18 01:14:36;;;;;;;13.50;7.82;;;;;;;7.62;95.40;103792.47;6097134;23;20507;-90
2021/12/18 01:25:11;;;;;;;14.03;8.17;;;;;;;7.84;95.02;103830.31;6200764;23;20344;-91
2021/12/18 01:27:37;;;;;;;13.40;8.02;;;;;;;7.86;95.02;103825.63;6165043;23;20059;-91
2021/12/18 01:30:05;;;;;;;13.10;7.68;;;;;;;7.58;94.58;103777.50;6164767;23;20344;-91
2021/12/18 01:32:31;;;;;;;12.40;7.35;;;;;;;7.53;94.85;103765.22;6188618;23;20008;-91
2021/12/18 01:34:57;;;;;;;11.88;7.15;;;;;;;7.52;94.83;103763.50;6189381;23;20313;-91
2021/12/18 01:37:23;;;;;;;12.50;7.68;;;;;;;7.49;94.46;103760.19;6189577;23;20096;-91
2021/12/18 01:39:52;;;;;;;13.60;7.75;;;;;;;7.81;94.75;103819.75;6189820;23;20000;-91
2021/12/18 01:45:08;;;;;;;11.45;6.78;;;;;;;7.86;94.65;103830.19;6216265;23;20407;-92
2021/12/18 01:52:55;;;;;;;13.35;7.43;;;;;;;7.73;94.84;103817.63;6215898;23;20020;-91
2021/12/18 01:55:33;;;;;;;11.70;7.40;;;;;;;7.53;94.96;103781.44;6189141;23;20435;-92
2021/12/18 01:58:01;;;;;;;13.32;7.47;;;;;;;7.84;94.83;103842.94;6189149;23;20062;-90
2021/12/18 02:00:31;;;;;;;16.35;7.97;;;;;;;7.88;94.54;103841.72;6141391;23;20008;-91
2021/12/18 02:02:58;;;;;;;14.27;8.45;;;;;;;7.88;94.46;103844.41;6189701;23;20005;-91
2021/12/18 02:05:24;;;;;;;13.05;7.82;;;;;;;7.82;94.73;103839.50;6140282;23;20321;-91
2021/12/18 02:07:50;;;;;;;11.50;7.38;;;;;;;7.71;94.97;103825.03;6188695;23;20005;-91
2021/12/18 02:10:22;;;;;;;14.45;7.22;;;;;;;7.81;94.91;103845.91;6164917;23;20040;-90
2021/12/18 02:21:16;;;;;;;12.23;7.72;;;;;;;7.84;95.35;103845.66;6172612;23;20463;-91
2021/12/18 02:23:43;;;;;;;13.68;7.95;;;;;;;7.70;95.17;103822.44;6159940;23;20328;-90
2021/12/18 02:26:08;;;;;;;14.70;8.30;;;;;;;7.83;95.19;103839.38;6168172;23;20012;-90
2021/12/18 02:28:34;;;;;;;15.23;8.43;;;;;;;7.81;95.29;103830.56;6166544;23;19997;-91
2021/12/18 02:31:00;;;;;;;14.55;8.18;;;;;;;7.45;95.33;103772.22;6162362;23;20249;-90
2021/12/18 02:33:27;;;;;;;14.60;8.57;;;;;;;7.78;95.27;103835.34;6167125;23;20011;-91
2021/12/18 02:35:56;;;;;;;15.38;8.80;;;;;;;7.71;95.56;103816.06;6160166;23;20020;-91
2021/12/18 02:38:31;;;;;;;15.10;8.65;;;;;;;7.75;95.70;103824.78;6113014;23;20468;-92
2021/12/18 02:43:34;;;;;;;16.17;9.98;;;;;;;7.49;95.90;103793.47;6187983;23;20313;-92
2021/12/18 02:46:06;;;;;;;15.80;9.10;;;;;;;7.52;95.94;103793.22;6160402;23;20383;-90
2021/12/18 02:48:37;;;;;;;15.93;9.57;;;;;;;7.70;96.00;103817.88;6161378;23;20340;-91
2021/12/18 02:51:05;;;;;;;15.95;9.57;;;;;;;7.68;96.04;103819.00;6161084;23;20456;-91
2021/12/18 02:53:34;;;;;;;14.50;8.85;;;;;;;7.29;96.16;103756.38;6161009;23;20005;-91
2021/12/18 02:56:05;;;;;;;16.52;9.63;;;;;;;7.47;96.44;103789.16;6137560;23;20335;-92
2021/12/18 02:58:36;;;;;;;18.38;10.25;;;;;;;7.63;96.40;103810.41;6161517;23;20470;-91
2021/12/18 03:01:04;;;;;;;16.42;9.93;;;;;;;7.50;96.28;103791.59;6161511;23;20100;-91
2021/12/18 03:03:33;;;;;;;16.45;9.60;;;;;;;7.19;96.92;103749.00;6161221;23;20005;-91
2021/12/18 03:06:19;;;;;;;16.63;10.02;;;;;;;7.34;96.74;103770.38;6137333;23;20028;-91
2021/12/18 03:09:10;;;;;;;16.80;10.32;;;;;;;7.56;96.70;103804.66;6161280;23;20028;-91
2021/12/18 03:25:20;;;;;;;15.23;9.30;;;;;;;7.22;96.99;103730.84;6202712;23;20017;-92
2021/12/18 03:27:46;;;;;;;16.38;9.23;;;;;;;7.26;97.04;103729.59;6170665;23;20424;-91
2021/12/18 03:30:34;;;;;;;15.70;9.82;;;;;;;7.60;97.07;103795.28;6191523;23;20368;-91
2021/12/18 03:33:00;;;;;;;15.13;9.15;;;;;;;7.59;96.86;103796.28;6191321;23;20049;-91
2021/12/18 03:35:26;;;;;;;16.50;9.20;;;;;;;7.38;97.13;103759.22;6168914;23;20094;-91
2021/12/18 03:37:55;;;;;;;15.63;8.82;;;;;;;7.43;97.27;103774.19;6190869;23;20451;-92
2021/12/18 03:40:25;;;;;;;15.52;9.05;;;;;;;7.42;96.89;103764.38;6191459;23;20385;-91
2021/12/18 03:42:51;;;;;;;15.35;8.90;;;;;;;7.60;97.16;103797.13;6190480;23;20072;-91
2021/12/18 03:45:18;;;;;;;15.88;9.38;;;;;;;7.43;97.07;103780.44;6190720;23;20087;-91
2021/12/18 03:47:45;;;;;;;14.55;8.80;;;;;;;7.22;96.85;103741.63;6166172;23;20009;-91
2021/12/18 03:50:12;;;;;;;15.43;8.95;;;;;;;7.36;97.09;103765.72;6190442;23;20015;-91
2021/12/18 03:52:38;;;;;;;16.23;9.73;;;;;;;7.62;97.21;103808.69;6190726;23;20008;-92
2021/12/18 03:55:07;;;;;;;14.98;8.77;;;;;;;7.28;97.12;103755.53;6140909;23;20017;-91
2021/12/18 03:57:32;;;;;;;16.73;9.82;;;;;;;7.28;96.86;103762.75;6140998;23;20004;-90
2021/12/18 03:59:58;;;;;;;15.23;9.02;;;;;;;7.57;97.06;103805.50;6165387;23;20011;-91
2021/12/18 04:02:24;;;;;;;16.67;9.20;;;;;;;7.44;97.09;103779.47;6190524;23;20055;-91
2021/12/18 04:04:50;;;;;;;15.07;8.90;;;;;;;7.25;97.07;103746.78;6190193;23;20474;-89
2021/12/18 04:07:17;;;;;;;18.10;9.02;;;;;;;7.60;97.17;103800.69;6190306;23;20020;-91
2021/12/18 04:09:43;;;;;;;14.82;8.70;;;;;;;7.55;97.21;103800.22;6141095;23;20428;-91
2021/12/18 04:12:09;;;;;;;13.80;8.43;;;;;;;7.51;97.07;103798.75;6190644;23;20008;-91
2021/12/18 04:14:38;;;;;;;15.23;8.77;;;;;;;7.14;97.43;103736.84;6190713;23;20019;-92
2021/12/18 04:17:05;;;;;;;15.50;9.00;;;;;;;7.40;97.30;103791.50;6165949;23;20398;-91
2021/12/18 04:19:32;;;;;;;14.82;8.80;;;;;;;7.37;97.72;103775.53;6164762;23;20036;-91
2021/12/18 04:21:58;;;;;;;14.75;8.95;;;;;;;7.28;97.45;103763.63;6190048;23;20052;-91
2021/12/18 04:24:23;;;;;;;15.63;9.35;;;;;;;7.32;97.48;103766.94;6165179;23;20012;-91
2021/12/18 04:26:49;;;;;;;14.90;8.82;;;;;;;7.26;97.35;103767.41;6165239;23;20013;-91
2021/12/18 04:29:15;;;;;;;16.17;9.15;;;;;;;7.49;98.09;103795.31;6190074;23;20043;-90
2021/12/18 04:31:44;;;;;;;15.75;9.18;;;;;;;7.53;97.99;103807.59;6164407;23;20020;-91
2021/12/18 04:34:09;;;;;;;15.65;8.55;;;;;;;7.50;97.89;103800.59;6164775;23;20019;-90
2021/12/18 04:36:35;;;;;;;14.68;8.63;;;;;;;7.44;97.81;103778.59;6164587;23;20440;-90
2021/12/18 04:39:03;;;;;;;16.83;8.65;;;;;;;7.13;97.62;103732.41;6164696;23;20033;-90
2021/12/18 04:41:42;;;;;;;14.20;8.07;;;;;;;7.51;97.61;103807.72;6189798;23;20008;-91
2021/12/18 04:44:08;;;;;;;13.50;8.52;;;;;;;7.16;97.59;103754.66;6167758;23;20020;-91
2021/12/18 04:46:34;;;;;;;14.85;9.20;;;;;;;7.11;98.28;103740.66;6189994;23;20009;-92
2021/12/18 04:49:00;;;;;;;14.77;9.02;;;;;;;7.12;97.90;103752.31;6190224;23;20024;-91
2021/12/18 04:51:26;;;;;;;15.50;8.80;;;;;;;7.15;98.06;103749.38;6190274;23;20012;-92
2021/12/18 04:53:52;;;;;;;15.48;9.07;;;;;;;7.18;98.17;103762.63;6165235;23;20317;-92
2021/12/18 04:56:22;;;;;;;15.30;8.88;;;;;;;7.32;98.29;103789.41;6189929;23;20012;-91
2021/12/18 04:58:48;;;;;;;13.93;8.48;;;;;;;7.19;98.46;103761.66;6189884;23;20008;-91
2021/12/18 05:01:15;;;;;;;16.73;9.10;;;;;;;7.14;98.49;103750.34;6164411;23;20009;-91
2021/12/18 05:03:42;;;;;;;14.43;9.00;;;;;;;7.14;98.11;103753.06;6190034;23;20009;-90
2021/12/18 05:06:07;;;;;;;15.15;8.88;;;;;;;7.36;98.40;103790.03;6164758;23;20013;-91
2021/12/18 05:08:36;;;;;;;15.25;9.18;;;;;;;7.12;98.46;103752.31;6189911;23;20485;-91
2021/12/18 05:11:02;;;;;;;15.10;8.70;;;;;;;7.17;98.37;103758.22;6189368;23;20011;-91
2021/12/18 05:13:27;;;;;;;15.05;8.70;;;;;;;7.24;98.35;103778.34;6189849;23;20000;-90
2021/12/18 05:15:53;;;;;;;15.65;9.65;;;;;;;7.50;98.67;103819.50;6139848;23;20004;-90
2021/12/18 05:18:21;;;;;;;15.25;8.70;;;;;;;7.34;98.45;103802.78;6165170;23;20032;-90
2021/12/18 05:20:47;;;;;;;17.40;8.77;;;;;;;7.27;98.45;103771.84;6164805;23;20386;-91
2021/12/18 05:23:12;;;;;;;14.65;8.45;;;;;;;7.51;98.77;103818.53;6143771;23;20035;-90
2021/12/18 05:25:38;;;;;;;15.05;8.20;;;;;;;7.26;98.32;103781.78;6199204;23;20498;-90
2021/12/18 05:28:07;;;;;;;15.15;8.32;;;;;;;7.18;98.07;103768.88;6139845;23;20004;-90
2021/12/18 05:30:35;;;;;;;14.98;8.68;;;;;;;7.47;98.23;103818.88;6165167;23;20012;-90
2021/12/18 05:33:00;;;;;;;13.25;8.55;;;;;;;7.05;98.22;103757.34;6164740;23;20008;-90
2021/12/18 05:35:26;;;;;;;15.55;8.65;;;;;;;7.35;98.34;103807.19;6189251;23;20044;-91
2021/12/18 05:37:54;;;;;;;13.13;7.85;;;;;;;7.09;98.10;103766.91;6188986;23;20011;-90
2021/12/18 05:40:22;;;;;;;13.38;7.78;;;;;;;7.40;98.62;103823.03;6188954;23;20004;-91
2021/12/18 05:42:52;;;;;;;14.95;8.60;;;;;;;7.37;98.30;103825.00;6189447;23;20012;-91
2021/12/18 05:45:19;;;;;;;15.75;9.15;;;;;;;7.20;98.27;103795.75;6164829;23;20015;-90
2021/12/18 05:47:48;;;;;;;16.42;9.55;;;;;;;7.07;99.01;103781.50;6189273;23;20344;-91
2021/12/18 05:50:16;;;;;;;17.15;10.00;;;;;;;6.94;99.00;103760.88;6165217;23;20093;-91
2021/12/18 05:52:44;;;;;;;18.33;9.88;;;;;;;7.14;99.50;103805.19;6189187;23;20008;-91
2021/12/18 05:55:10;;;;;;;20.80;11.48;;;;;;;7.21;99.99;103805.59;6189460;23;20008;-91
2021/12/18 05:57:36;;;;;;;20.35;10.82;;;;;;;6.95;100.00;103765.31;6140236;23;20762;-91
2021/12/18 06:00:05;;;;;;;20.13;10.82;;;;;;;7.05;100.00;103767.28;6164563;23;20012;-91
2021/12/18 06:02:31;;;;;;;20.23;11.60;;;;;;;7.38;100.00;103815.94;6189077;23;20004;-90
2021/12/18 06:04:56;;;;;;;20.95;11.80;;;;;;;7.23;100.00;103805.47;6164718;23;20009;-90
2021/12/18 06:07:31;;;;;;;19.40;11.15;;;;;;;7.43;100.00;103831.78;6189592;23;20008;-90
2021/12/18 06:09:58;;;;;;;19.88;10.82;;;;;;;7.38;100.00;103825.84;6166209;23;20012;-91
2021/12/18 06:12:27;;;;;;;19.73;10.90;;;;;;;7.19;100.00;103794.06;6189734;23;20012;-91
2021/12/18 06:14:56;;;;;;;17.52;10.20;;;;;;;7.00;100.00;103763.09;6191225;23;20017;-89
2021/12/18 06:17:22;;;;;;;19.13;10.38;;;;;;;7.36;99.75;103827.84;6166674;23;20012;-91
2021/12/18 06:19:48;;;;;;;17.27;9.57;;;;;;;7.33;100.00;103823.53;6143359;23;20019;-91
2021/12/18 06:22:14;;;;;;;19.17;10.65;;;;;;;7.15;100.00;103797.97;6141337;23;20021;-90
2021/12/18 06:24:40;;;;;;;20.10;10.15;;;;;;;7.02;100.00;103777.31;6166192;23;20083;-91
2021/12/18 06:27:05;;;;;;;17.10;10.18;;;;;;;7.16;100.00;103803.25;6191108;23;20009;-91
2021/12/18 06:29:34;;;;;;;21.45;10.73;;;;;;;7.29;100.00;103822.06;6166165;23;20015;-91
2021/12/18 06:32:01;;;;;;;17.73;9.68;;;;;;;7.01;100.00;103789.13;6167313;23;20343;-91
2021/12/18 06:34:29;;;;;;;18.05;9.70;;;;;;;6.84;100.00;103771.53;6165846;23;20348;-91
2021/12/18 06:36:55;;;;;;;17.90;9.68;;;;;;;6.85;100.00;103767.84;6191011;23;20062;-90
2021/12/18 06:39:20;;;;;;;16.55;9.18;;;;;;;6.89;100.00;103771.16;6166587;23;20378;-90
2021/12/18 06:41:46;;;;;;;16.70;8.75;;;;;;;7.09;100.00;103799.31;6191032;23;20009;-90
2021/12/18 06:44:13;;;;;;;17.10;9.20;;;;;;;6.90;100.00;103772.91;6165678;23;20021;-90
2021/12/18 06:46:42;;;;;;;17.45;9.68;;;;;;;6.87;100.00;103751.53;6141670;23;20063;-91
2021/12/18 06:49:10;;;;;;;17.02;8.90;;;;;;;7.27;100.00;103812.38;6166648;23;20012;-90
2021/12/18 06:51:37;;;;;;;19.15;9.63;;;;;;;7.19;100.00;103799.47;6166554;23;20015;-90
2021/12/18 06:54:04;;;;;;;19.08;9.60;;;;;;;7.04;100.00;103771.81;6189199;23;20084;-91
2021/12/18 06:56:29;;;;;;;19.45;10.23;;;;;;;7.33;100.00;103811.88;6165189;23;20009;-90
2021/12/18 06:58:58;;;;;;;18.58;9.85;;;;;;;6.98;100.00;103756.97;6166038;23;20059;-91
2021/12/18 07:08:58;;;;;;;;;;;;;;;;;;;;;
2021/12/18 07:12:06;;;;;;;15.70;8.50;;;;;;;7.10;100.00;103765.94;6040736;23;20081;-94
2021/12/18 07:14:35;;;;;;;17.45;8.80;;;;;;;7.01;100.00;103753.16;6024051;23;20517;-91
2021/12/18 07:17:03;;;;;;;17.60;8.90;;;;;;;6.97;100.00;103749.00;6089497;23;20014;-93
2021/12/18 07:19:41;;;;;;;16.38;8.32;;;;;;;7.00;100.00;103741.50;6101710;23;20006;-93
2021/12/18 07:22:17;;;;;;;18.88;8.82;;;;;;;7.00;100.00;103749.59;6161013;23;20411;-92
2021/12/18 07:25:35;;;;;;;;;;;;;;;;;;;;;
2021/12/18 07:32:13;;;;;;;15.23;7.65;;;;;;;7.37;100.00;103807.94;6097010;23;20009;-93
2021/12/18 07:35:10;;;;;;;;;;;;;;;;;;;;;
2021/12/18 07:37:47;;;;;;;14.98;8.00;;;;;;;7.01;100.00;103753.16;6075171;23;20490;-93
2021/12/18 07:40:14;;;;;;;14.38;7.25;;;;;;;7.01;100.00;103750.44;6172833;23;20004;-91
2021/12/18 07:43:35;;;;;;;14.15;7.90;;;;;;;7.41;100.00;103816.66;6166221;23;20008;-95
2021/12/18 07:49:26;;;;;;;17.10;8.43;;;;;;;7.18;99.98;103804.00;6217397;23;20047;-91
2021/12/18 07:59:53;;;;;;;13.98;7.63;;;;;;;7.42;100.00;103824.63;6068023;23;20021;-95
2021/12/18 08:03:18;;;;;;;15.00;7.50;;;;;;;7.08;100.00;103765.19;6043134;23;20425;-94
2021/12/18 08:06:20;;;;;;;;;;;;;;;;;;;;;
2021/12/18 08:09:45;;;;;;;;;;;;;;;;;;;;;
2021/12/18 08:12:34;;;;;;;18.08;9.05;;;;;;;6.98;100.00;103764.19;6186438;23;20091;-95
2021/12/18 08:15:38;;;;;;;16.35;8.55;;;;;;;7.04;100.00;103771.81;6190578;23;20005;-94
2021/12/18 08:18:34;;;;;;;17.65;8.70;;;;;;;7.27;100.00;103810.50;6171379;23;20013;-95
2021/12/18 08:21:36;;;;;;;15.98;8.40;;;;;;;7.08;100.00;103773.28;6201826;23;20005;-95
2021/12/18 08:31:32;;;;;;;16.10;7.95;;;;;;;7.49;100.00;103831.28;6248099;23;20054;-94
2021/12/18 08:37:40;;;;;;;13.00;6.55;;;;;;;7.14;100.00;103767.41;6246605;23;20054;-94
2021/12/18 09:01:00;;;;;;;19.65;10.80;;;;;;;7.84;99.21;103807.81;5953634;24;20479;-89
2021/12/18 09:03:26;;;;;;;21.45;11.15;;;;;;;7.73;99.46;103773.53;5951511;24;20445;-86
2021/12/18 09:05:52;;;;;;;13.57;6.57;;;;;;;7.73;99.08;103787.06;6000885;23;20119;-87
2021/12/18 09:08:17;;;;;;;11.75;6.22;;;;;;;7.89;99.57;103806.44;6163056;23;20415;-88
2021/12/18 09:10:44;;;;;;;11.40;6.18;;;;;;;7.90;98.57;103802.75;6218214;23;20086;-91
2021/12/18 09:13:10;;;;;;;11.57;5.78;;;;;;;7.71;98.62;103772.81;6218362;23;20082;-89
2021/12/18 09:15:35;;;;;;;12.57;6.00;;;;;;;8.00;98.48;103826.34;6218686;23;20086;-90
2021/12/18 09:18:06;;;;;;;10.88;6.22;;;;;;;7.88;98.62;103784.94;6168617;23;20047;-90
2021/12/18 09:20:41;;;;;;;10.48;5.40;;;;;;;8.07;97.91;103817.63;6243679;23;20032;-90
2021/12/18 09:23:17;;;;;;;10.98;6.07;;;;;;;7.80;97.62;103769.34;6218595;23;20024;-89
2021/12/18 09:25:46;;;;;;;9.75;5.82;;;;;;;8.06;97.26;103807.78;6219186;23;20028;-90
2021/12/18 09:28:12;;;;;;;8.10;4.70;;;;;;;8.07;96.80;103801.41;6243972;23;20308;-90
2021/12/18 09:30:39;;;;;;;8.75;5.10;;;;;;;8.15;96.64;103808.88;6245425;23;20054;-90
2021/12/18 09:33:05;;;;;;;10.20;5.22;;;;;;;7.95;96.34;103771.78;6218426;23;20008;-90
2021/12/18 09:35:30;;;;;;;10.45;5.30;;;;;;;8.24;96.67;103816.22;6218330;23;20088;-89
2021/12/18 09:37:59;;;;;;;9.65;4.78;;;;;;;8.45;96.33;103833.53;6218688;23;20011;-90
2021/12/18 09:40:29;;;;;;;8.75;4.43;;;;;;;8.10;95.56;103775.06;6194115;23;20509;-90
2021/12/18 09:42:54;;;;;;;9.23;5.20;;;;;;;8.47;96.10;103823.44;6192741;23;20015;-89
2021/12/18 09:45:22;;;;;;;10.20;5.68;;;;;;;8.13;95.57;103770.25;6244406;23;20477;-90
2021/12/18 09:47:51;;;;;;;9.30;4.90;;;;;;;8.14;95.13;103760.31;6193127;23;20004;-89
2021/12/18 09:50:19;;;;;;;9.20;5.07;;;;;;;8.32;94.30;103785.81;6218182;23;20003;-89
2021/12/18 09:52:48;;;;;;;10.13;4.97;;;;;;;8.23;95.27;103765.78;6218419;23;20000;-90
2021/12/18 09:55:17;;;;;;;9.57;4.90;;;;;;;8.39;94.89;103792.44;6218435;23;20035;-91
2021/12/18 09:57:43;;;;;;;9.40;5.30;;;;;;;8.21;94.39;103754.25;6193176;23;20154;-88
2021/12/18 10:00:15;;;;;;;9.40;5.38;;;;;;;8.55;95.06;103813.69;6244833;23;20059;-89
2021/12/18 10:02:41;;;;;;;10.57;5.97;;;;;;;8.63;94.76;103820.31;6217751;23;20008;-89
2021/12/18 10:05:23;;;;;;;9.07;5.68;;;;;;;8.50;94.79;103786.13;6244782;22;20004;-89
2021/12/18 10:08:25;;;;;;;9.93;5.78;;;;;;;8.67;94.50;103811.78;6244333;23;20005;-89
2021/12/18 10:11:09;;;;;;;10.85;5.95;;;;;;;8.69;94.76;103806.25;6244709;23;20012;-89
2021/12/18 10:13:55;;;;;;;12.07;6.13;;;;;;;8.75;94.62;103809.31;6217733;23;20067;-89
2021/12/18 10:16:27;;;;;;;11.05;5.63;;;;;;;8.69;94.37;103801.69;6218098;23;20449;-89
2021/12/18 10:18:53;;;;;;;11.23;5.60;;;;;;;8.69;94.07;103798.13;6217819;23;20024;-89
2021/12/18 10:21:22;;;;;;;7.18;4.35;;;;;;;8.40;94.50;103767.09;6217894;23;20015;-90
2021/12/18 10:23:49;;;;;;;9.13;4.88;;;;;;;8.48;94.46;103779.16;6243817;23;20023;-89
2021/12/18 10:26:45;;;;;;;16.00;8.07;;;;;;;8.46;94.65;103765.75;6244834;23;20433;-89
2021/12/18 10:29:35;;;;;;;9.85;5.28;;;;;;;8.50;95.14;103763.63;6244697;23;20271;-89
2021/12/18 10:32:08;;;;;;;9.50;5.18;;;;;;;8.50;94.51;103796.97;6217809;23;20012;-88
2021/12/18 10:34:35;;;;;;;7.78;4.90;;;;;;;8.12;94.93;103735.22;6244432;23;20000;-89
2021/12/18 10:37:23;;;;;;;7.20;4.28;;;;;;;8.48;95.26;103790.84;6218103;23;20104;-89
2021/12/18 10:39:59;;;;;;;6.53;3.95;;;;;;;8.48;94.83;103798.94;6217949;23;20083;-88
2021/12/18 10:42:42;;;;;;;8.15;4.20;;;;;;;8.50;95.37;103794.25;6217278;23;20019;-89
2021/12/18 10:45:16;;;;;;;;;;;;;;;8.66;95.48;103799.22;6218566;23;20004;-89
2021/12/18 10:47:54;;;;;;;7.05;4.18;;;;;;;8.50;94.67;103794.25;6244804;23;19904;-89
2021/12/18 10:50:50;;;;;;;6.45;3.75;;;;;;;8.44;94.78;103797.47;6217549;23;20008;-89
2021/12/18 10:53:17;;;;;;;5.20;3.15;;;;;;;8.04;94.61;103736.72;6244490;23;20357;-89
2021/12/18 10:55:47;;;;;;;5.82;3.15;;;;;;;8.43;94.79;103787.63;6244541;23;20004;-89
2021/12/18 10:58:18;;;;;;;7.63;3.83;;;;;;;8.03;95.05;103726.91;6217410;23;20004;-89
2021/12/18 11:00:46;;;;;;;6.53;4.07;;;;;;;8.36;94.26;103787.28;6246974;23;20030;-89
2021/12/18 11:03:14;;;;;;;5.05;3.67;;;;;;;8.21;94.50;103754.25;6219612;23;20012;-89
2021/12/18 11:05:42;;;;;;;4.82;3.08;;;;;;;8.41;93.65;103787.78;6244690;23;20008;-89
2021/12/18 11:08:10;;;;;;;4.68;2.95;;;;;;;8.08;92.61;103734.63;6219380;23;20015;-89
2021/12/18 11:13:37;;;;;;;4.32;2.90;;;;;;;8.22;93.35;103757.81;6218887;23;20012;-89
2021/12/18 11:13:45;;;;;;;3.45;2.45;;;;;;;8.05;92.55;103738.44;6246226;23;20008;-89
2021/12/18 11:16:12;;;;;;;3.67;2.60;;;;;;;8.00;92.29;103732.59;6196892;23;20444;-89
2021/12/18 11:18:41;;;;;;;3.70;2.35;;;;;;;8.34;92.32;103791.97;6248081;23;20032;-89
2021/12/18 11:21:09;;;;;;;3.17;2.50;;;;;;;8.08;92.81;103730.06;6195405;23;20023;-89
2021/12/18 11:24:04;;;;;;;3.78;2.55;;;;;;;8.34;92.90;103743.28;6219466;23;20012;-90
2021/12/18 11:26:41;;;;;;;5.15;2.60;;;;;;;8.69;92.97;103784.59;6211091;23;20019;-88
2021/12/18 11:29:14;;;;;;;4.20;2.30;;;;;;;8.65;92.59;103762.34;6196889;23;20004;-89
2021/12/18 11:31:42;;;;;;;7.03;3.25;;;;;;;8.42;92.33;103718.25;6244858;23;20004;-90
2021/12/18 11:34:11;;;;;;;4.68;3.40;;;;;;;8.67;93.11;103757.66;6245540;23;20015;-87
2021/12/18 11:36:43;;;;;;;14.45;7.75;;;;;;;8.80;92.19;103775.53;6246300;23;20122;-90
2021/12/18 11:39:11;;;;;;;14.02;4.88;;;;;;;8.77;92.63;103757.72;6246238;23;20007;-87
2021/12/18 11:41:39;;;;;;;7.57;4.18;;;;;;;8.68;91.92;103728.72;6219777;23;20004;-89
2021/12/18 11:44:23;;;;;;;4.18;3.20;;;;;;;8.97;92.87;103764.13;6247272;23;20004;-89
2021/12/18 11:46:49;;;;;;;6.15;3.33;;;;;;;8.94;92.36;103770.66;6219572;23;20030;-91
2021/12/18 11:49:19;;;;;;;6.05;3.53;;;;;;;8.87;91.75;103764.06;6169368;23;20018;-88
2021/12/18 11:52:03;;;;;;;6.00;3.72;;;;;;;8.79;92.45;103755.75;6218292;23;20004;-90
2021/12/18 11:54:54;;;;;;;7.55;4.05;;;;;;;8.69;92.97;103749.41;6219585;23;20011;-90
2021/12/18 11:57:50;;;;;;;7.05;4.60;;;;;;;8.45;93.94;103747.81;6222106;23;20074;-90
2021/12/18 12:00:21;;;;;;;8.07;4.57;;;;;;;8.38;93.95;103770.91;6212516;23;20011;-90
2021/12/18 12:03:05;;;;;;;7.60;4.30;;;;;;;8.12;94.38;103727.13;6219920;23;20395;-89
2021/12/18 12:05:45;;;;;;;4.75;3.33;;;;;;;8.22;94.64;103755.09;6219989;23;20364;-91
2021/12/18 12:08:38;;;;;;;6.55;3.72;;;;;;;8.14;94.73;103754.91;6219118;23;20006;-90
2021/12/18 12:11:23;;;;;;;5.40;3.72;;;;;;;8.16;95.20;103756.47;6219627;23;20000;-91
2021/12/18 12:14:08;;;;;;;5.00;3.63;;;;;;;8.19;95.58;103748.13;6220001;23;20008;-91
2021/12/18 12:17:03;;;;;;;5.00;3.30;;;;;;;8.12;95.19;103716.31;6219644;23;20417;-91
2021/12/18 12:19:34;;;;;;;7.35;4.10;;;;;;;8.25;94.60;103742.19;6226772;23;20064;-90
2021/12/18 12:22:02;;;;;;;9.15;3.88;;;;;;;7.86;94.58;103678.78;6220066;23;20065;-91
2021/12/18 12:24:59;;;;;;;4.95;3.67;;;;;;;7.81;93.27;103679.19;6218576;23;20351;-89
2021/12/18 12:27:48;;;;;;;4.10;3.20;;;;;;;8.19;93.33;103737.31;6212369;23;20011;-90
2021/12/18 12:30:43;;;;;;;5.35;3.50;;;;;;;8.31;94.37;103729.13;6245796;23;20035;-90
2021/12/18 12:33:15;;;;;;;4.72;3.70;;;;;;;7.72;94.05;103667.28;6218801;23;20083;-89
2021/12/18 12:36:04;;;;;;;5.57;3.70;;;;;;;7.76;94.24;103675.13;6245557;23;20000;-90
2021/12/18 12:38:34;;;;;;;4.05;3.17;;;;;;;7.75;93.97;103677.00;6218571;23;20011;-90
2021/12/18 12:41:32;;;;;;;5.53;3.60;;;;;;;8.14;94.47;103735.97;6218819;23;20011;-89
2021/12/18 12:44:29;;;;;;;5.60;4.07;;;;;;;7.82;94.57;103680.88;6245058;23;20004;-90
2021/12/18 12:47:13;;;;;;;14.02;8.00;;;;;;;8.08;94.81;103727.38;6218485;23;20414;-90
2021/12/18 12:49:43;;;;;;;4.45;3.58;;;;;;;7.92;94.00;103699.91;6218207;23;20004;-89
2021/12/18 12:52:14;;;;;;;4.43;3.10;;;;;;;7.79;94.19;103685.69;6244226;23;20398;-90
2021/12/18 12:55:00;;;;;;;2.80;2.47;;;;;;;8.05;94.92;103727.63;6218828;23;20378;-90
2021/12/18 12:57:27;;;;;;;3.17;2.75;;;;;;;8.07;94.46;103716.69;6218083;23;20000;-90
2021/12/18 12:59:58;;;;;;;4.15;3.22;;;;;;;7.96;93.92;103717.59;6218301;23;20004;-89
2021/12/18 13:02:33;;;;;;;4.10;3.20;;;;;;;7.83;94.22;103693.41;6217809;23;20008;-91
2021/12/18 13:05:29;;;;;;;5.53;4.40;;;;;;;7.97;93.44;103713.91;6219993;23;20008;-94
2021/12/18 13:08:32;;;;;;;3.55;3.10;;;;;;;7.96;93.90;103714.00;6220178;23;20008;-94
2021/12/18 13:11:00;;;;;;;4.90;3.10;;;;;;;7.77;93.52;103693.09;6219339;23;20076;-91
2021/12/18 13:13:29;;;;;;;3.50;3.20;;;;;;;7.50;92.30;103648.41;6219521;23;20008;-91
2021/12/18 13:16:15;;;;;;;3.70;3.00;;;;;;;7.88;93.03;103704.72;6218544;23;20040;-90
2021/12/18 13:18:45;;;;;;;5.38;4.00;;;;;;;7.68;92.95;103667.69;6245166;23;20007;-91
2021/12/18 13:21:25;;;;;;;4.30;3.58;;;;;;;7.76;94.02;103677.84;6221351;23;20505;-91
2021/12/18 13:23:57;;;;;;;4.57;3.60;;;;;;;7.85;93.28;103691.47;6219741;23;20016;-90
2021/12/18 13:26:27;;;;;;;;;;;;;;;8.02;93.85;103690.03;6219705;23;20008;-90
2021/12/18 13:29:00;;;;;;;4.55;3.70;;;;;;;7.85;93.98;103685.19;6218858;23;19903;-90
2021/12/18 13:31:35;;;;;;;4.18;3.42;;;;;;;7.72;94.00;103690.72;6218727;23;20429;-91
2021/12/18 13:34:21;;;;;;;5.75;3.70;;;;;;;7.31;93.75;103624.78;6220057;23;20326;-91
2021/12/18 13:36:57;;;;;;;4.15;3.40;;;;;;;7.53;94.03;103686.88;6218640;23;20331;-91
2021/12/18 13:39:35;;;;;;;3.65;3.25;;;;;;;7.04;93.62;103626.00;6218410;23;20326;-91